Atlanta, Missouri
Current Conditions -  °F | °C
As of 5:55 PM on Thursday 27 Nov 2014 (Local Time) from KIRK Reporting Station
Broken Clouds Broken Clouds  
Wind Chill: 12°   Ceiling: 7000
Heat Index: 21°   Visibility: 10mi
Dew Point: 13°   Wind: 7mph
Humidity: 71%   Direction: 60°ENE
Pressure: 30.43"   Gusts: NA
Location:  39.9°N, 92.48°W
Report Text: KIRK 272355Z AUTO 06006KT 10SM BKN070 M06/M11 A3043 RMK AO2 SLP320 T10611106 11022 21061 58007
Loading
Personal Weather Stations






























Interactive Weather Map New forecast layout! Learn more

10-Day Weather Forecast

Advertisements
Track Severe Weather on mobile